Time;durP1;ratioP1;P1;durP2;ratioP2;P2;SDS_P1;SDS_P2;PMS_P1;PMS_P2;Temp;Humidity;BMP_temperature;BMP_pressure;BME280_temperature;BME280_humidity;BME280_pressure;Samples;Min_cycle;Max_cycle;Signal;HPM_P1;HPM_P2
2023/10/16 00:01:48;;;;;;;17.90;6.43;;;;;;;4.73;100.00;102269.66;5008971;28;20026;-80
2023/10/16 00:04:13;;;;;;;16.30;6.05;;;;;;;4.76;100.00;102266.91;5009359;28;20030;-81
2023/10/16 00:06:39;;;;;;;22.75;6.93;;;;;;;4.81;100.00;102254.34;4991514;28;20037;-81
2023/10/16 00:09:14;;;;;;;19.98;6.78;;;;;;;4.86;100.00;102255.09;4991613;28;20030;-81
2023/10/16 00:11:39;;;;;;;19.65;6.22;;;;;;;4.93;100.00;102254.94;5009164;28;20021;-81
2023/10/16 00:14:19;;;;;;;19.10;5.95;;;;;;;4.98;100.00;102250.34;5007619;28;20030;-81
2023/10/16 00:16:44;;;;;;;16.17;6.15;;;;;;;5.02;100.00;102252.00;5007994;28;20029;-81
2023/10/16 00:19:11;;;;;;;19.92;7.88;;;;;;;5.07;100.00;102260.75;5008759;28;20132;-81
2023/10/16 00:21:43;;;;;;;16.52;6.20;;;;;;;5.11;100.00;102256.22;4991405;28;20045;-81
2023/10/16 00:24:12;;;;;;;22.67;6.47;;;;;;;5.12;100.00;102257.97;4991834;28;20119;-80
2023/10/16 00:26:42;;;;;;;17.77;6.60;;;;;;;5.18;100.00;102257.78;5009469;28;20442;-81
2023/10/16 00:29:17;;;;;;;17.75;6.78;;;;;;;5.22;100.00;102251.47;4991237;28;20037;-81
2023/10/16 00:31:52;;;;;;;18.10;6.93;;;;;;;5.26;100.00;102255.78;5001385;28;20030;-81
2023/10/16 00:34:21;;;;;;;18.67;6.60;;;;;;;5.33;100.00;102256.47;4991387;28;20141;-81
2023/10/16 00:36:53;;;;;;;16.75;6.18;;;;;;;5.35;100.00;102257.31;5000719;28;20074;-81
2023/10/16 00:39:20;;;;;;;17.98;6.22;;;;;;;5.37;100.00;102253.69;5007556;28;20025;-81
2023/10/16 00:41:51;;;;;;;18.92;7.55;;;;;;;5.42;100.00;102259.75;5008648;28;20041;-81
2023/10/16 00:44:17;;;;;;;19.38;7.50;;;;;;;5.45;100.00;102258.81;4991093;28;20570;-81
2023/10/16 00:46:45;;;;;;;20.90;6.50;;;;;;;5.46;100.00;102260.56;5009028;28;20037;-81
2023/10/16 00:49:13;;;;;;;20.10;7.07;;;;;;;5.42;100.00;102261.56;5008640;28;20065;-81
2023/10/16 00:51:40;;;;;;;19.67;6.90;;;;;;;5.41;100.00;102262.47;4990900;28;20026;-81
2023/10/16 00:54:16;;;;;;;18.10;6.38;;;;;;;5.39;100.00;102251.00;4991167;28;20490;-81
2023/10/16 00:56:51;;;;;;;16.25;6.25;;;;;;;5.39;100.00;102251.84;5008876;28;20375;-81
2023/10/16 00:59:17;;;;;;;17.77;6.10;;;;;;;5.40;100.00;102250.94;4991096;28;20455;-81
2023/10/16 01:01:46;;;;;;;18.25;6.90;;;;;;;5.41;100.00;102250.00;4991695;28;20033;-80
2023/10/16 01:04:17;;;;;;;20.83;7.30;;;;;;;5.40;100.00;102248.28;5009269;28;20029;-80
2023/10/16 01:06:44;;;;;;;21.90;6.30;;;;;;;5.41;100.00;102249.13;5009001;28;20033;-80
2023/10/16 01:09:09;;;;;;;18.75;6.78;;;;;;;5.39;100.00;102245.66;4991204;28;20030;-80
2023/10/16 01:11:39;;;;;;;20.73;7.68;;;;;;;5.40;100.00;102242.94;5008838;28;20125;-80
2023/10/16 01:14:07;;;;;;;17.85;7.32;;;;;;;5.40;100.00;102248.28;4991994;28;20022;-80
2023/10/16 01:16:33;;;;;;;16.13;6.13;;;;;;;5.38;100.00;102238.56;4994874;28;20026;-80
2023/10/16 01:19:06;;;;;;;18.77;6.45;;;;;;;5.37;100.00;102231.47;5012483;28;20246;-80
2023/10/16 01:21:32;;;;;;;20.02;6.75;;;;;;;5.32;100.00;102233.41;4994682;28;20124;-80
2023/10/16 01:24:03;;;;;;;17.65;6.80;;;;;;;5.32;100.00;102236.94;4994852;28;20030;-80
2023/10/16 01:26:29;;;;;;;18.92;6.80;;;;;;;5.31;100.00;102232.53;4994691;28;20029;-80
2023/10/16 01:28:55;;;;;;;20.35;7.25;;;;;;;5.33;100.00;102233.38;4994568;28;20061;-80
2023/10/16 01:31:21;;;;;;;17.70;6.78;;;;;;;5.33;100.00;102235.16;5012376;28;20058;-80
2023/10/16 01:33:47;;;;;;;19.75;7.38;;;;;;;5.34;100.00;102234.25;5012568;28;20057;-80
2023/10/16 01:36:13;;;;;;;21.63;7.43;;;;;;;5.36;100.00;102237.72;5012168;28;20030;-80
2023/10/16 01:38:39;;;;;;;19.30;7.30;;;;;;;5.38;100.00;102230.56;5012211;28;20096;-80
2023/10/16 01:41:05;;;;;;;20.25;6.90;;;;;;;5.40;100.00;102226.94;5012110;28;20101;-80
2023/10/16 01:43:35;;;;;;;19.10;7.03;;;;;;;5.46;100.00;102230.34;4994280;28;20108;-80
2023/10/16 01:46:04;;;;;;;20.73;7.75;;;;;;;5.46;100.00;102231.22;4994537;28;20436;-80
2023/10/16 01:48:29;;;;;;;20.98;7.30;;;;;;;5.49;100.00;102223.13;5020876;28;20400;-80
2023/10/16 01:50:56;;;;;;;24.80;7.82;;;;;;;5.51;100.00;102223.09;5011911;28;20106;-80
2023/10/16 01:53:25;;;;;;;21.50;8.02;;;;;;;5.52;100.00;102224.81;5027078;28;20022;-80
2023/10/16 01:55:54;;;;;;;20.70;7.90;;;;;;;5.54;100.00;102229.19;5010666;28;20030;-80
2023/10/16 01:58:21;;;;;;;20.58;7.93;;;;;;;5.53;100.00;102219.44;5010688;28;20076;-80
2023/10/16 02:00:47;;;;;;;18.10;7.43;;;;;;;5.53;100.00;102227.44;5011855;28;20022;-80
2023/10/16 02:03:13;;;;;;;19.95;7.53;;;;;;;5.52;100.00;102225.72;5010210;28;20087;-80
2023/10/16 02:05:41;;;;;;;18.60;7.57;;;;;;;5.50;100.00;102221.34;5013496;28;20097;-78
2023/10/16 02:08:07;;;;;;;20.10;8.05;;;;;;;5.45;100.00;102218.81;5020272;28;20080;-78
2023/10/16 02:10:32;;;;;;;21.63;7.75;;;;;;;5.41;100.00;102217.16;5035823;28;20030;-77
2023/10/16 02:12:58;;;;;;;19.98;7.72;;;;;;;5.41;100.00;102214.47;5021061;28;20026;-78
2023/10/16 02:15:23;;;;;;;23.45;7.68;;;;;;;5.36;100.00;102214.63;5021892;28;20025;-77
2023/10/16 02:17:49;;;;;;;22.60;8.18;;;;;;;5.35;100.00;102212.00;5011774;28;20131;-81
2023/10/16 02:20:19;;;;;;;20.88;8.05;;;;;;;5.33;100.00;102213.81;5009698;28;20155;-80
2023/10/16 02:22:45;;;;;;;16.77;7.13;;;;;;;5.32;100.00;102207.63;5011925;28;20026;-80
2023/10/16 02:25:11;;;;;;;20.50;8.48;;;;;;;5.32;100.00;102202.28;5009688;28;20180;-81
2023/10/16 02:27:37;;;;;;;18.70;7.50;;;;;;;5.27;100.00;102206.00;5026570;28;20104;-80
2023/10/16 02:32:53;;;;;;;19.33;7.78;;;;;;;5.19;100.00;102201.78;5011468;28;20064;-80
2023/10/16 02:35:22;;;;;;;22.30;7.95;;;;;;;5.17;100.00;102200.97;5025961;28;20095;-80
2023/10/16 02:37:53;;;;;;;17.70;7.25;;;;;;;5.11;100.00;102201.13;5002191;28;20029;-80
2023/10/16 02:40:20;;;;;;;17.77;7.22;;;;;;;5.06;100.00;102197.72;5009633;28;20026;-80
2023/10/16 02:42:52;;;;;;;21.10;8.60;;;;;;;5.04;100.00;102197.75;5010935;28;20068;-80
2023/10/16 02:45:26;;;;;;;17.35;6.88;;;;;;;5.01;100.00;102202.31;5026173;28;20017;-80
2023/10/16 02:47:53;;;;;;;20.42;7.53;;;;;;;5.00;100.00;102200.56;5011031;28;20077;-80
2023/10/16 02:50:19;;;;;;;22.50;7.90;;;;;;;4.98;100.00;102197.94;4993208;28;20028;-80
2023/10/16 02:52:46;;;;;;;20.27;8.20;;;;;;;4.93;100.00;102193.66;5010856;28;20049;-80
2023/10/16 02:55:11;;;;;;;19.70;7.35;;;;;;;4.95;100.00;102194.47;4992926;28;20017;-79
2023/10/16 02:57:40;;;;;;;20.42;8.32;;;;;;;4.95;100.00;102200.69;5011211;28;20028;-80
2023/10/16 03:00:08;;;;;;;20.50;8.05;;;;;;;4.97;100.00;102203.31;5010640;28;20026;-80
2023/10/16 03:02:34;;;;;;;22.13;8.75;;;;;;;4.97;100.00;102198.00;5010567;28;20025;-80
2023/10/16 03:05:21;;;;;;;20.13;8.55;;;;;;;4.97;100.00;102196.19;4992804;28;20042;-79
2023/10/16 03:07:49;;;;;;;20.15;8.25;;;;;;;4.98;100.00;102202.38;5010600;28;20026;-80
2023/10/16 03:10:16;;;;;;;20.10;8.35;;;;;;;4.97;100.00;102195.31;4992619;28;20021;-80
2023/10/16 03:12:42;;;;;;;19.73;8.32;;;;;;;4.97;100.00;102198.00;5010427;28;20040;-80
2023/10/16 03:15:20;;;;;;;22.60;8.75;;;;;;;4.95;100.00;102203.34;5010189;28;20068;-80
2023/10/16 03:17:51;;;;;;;20.90;7.90;;;;;;;4.93;100.00;102199.84;4992945;28;20025;-80
2023/10/16 03:20:21;;;;;;;19.38;7.65;;;;;;;4.91;100.00;102191.03;4992261;28;20475;-80
2023/10/16 03:22:47;;;;;;;;;;;;;;;4.93;100.00;102199.00;5009384;28;20033;-79
2023/10/16 03:25:25;;;;;;;18.20;7.18;;;;;;;4.80;100.00;102187.78;5010187;28;20136;-80
2023/10/16 03:27:51;;;;;;;19.15;7.93;;;;;;;4.73;100.00;102181.78;5010401;28;20026;-80
2023/10/16 03:30:17;;;;;;;20.60;8.40;;;;;;;4.72;100.00;102190.66;4992647;28;20022;-80
2023/10/16 03:32:42;;;;;;;21.13;8.43;;;;;;;4.64;100.00;102185.56;5010149;28;20054;-80
2023/10/16 03:35:09;;;;;;;19.38;7.85;;;;;;;4.58;100.00;102192.81;4992293;28;20068;-79
2023/10/16 03:37:35;;;;;;;21.58;9.00;;;;;;;4.51;100.00;102182.34;4979285;28;20026;-78
2023/10/16 03:40:07;;;;;;;20.35;9.10;;;;;;;4.47;100.00;102180.66;5017227;28;20022;-77
2023/10/16 03:42:33;;;;;;;18.58;8.10;;;;;;;4.46;100.00;102184.25;4998965;28;20040;-77
2023/10/16 03:45:01;;;;;;;26.52;8.20;;;;;;;4.43;100.00;102180.81;5016473;28;20104;-77
2023/10/16 03:47:27;;;;;;;20.02;8.02;;;;;;;4.42;100.00;102187.03;4999855;28;20066;-78
2023/10/16 03:49:52;;;;;;;25.23;8.52;;;;;;;4.39;100.00;102182.66;5015025;28;20068;-77
2023/10/16 03:52:17;;;;;;;20.25;7.80;;;;;;;4.33;100.00;102185.47;5015863;28;20079;-78
2023/10/16 03:54:43;;;;;;;19.08;7.63;;;;;;;4.29;100.00;102187.34;5016391;28;20038;-77
2023/10/16 03:57:11;;;;;;;21.65;8.38;;;;;;;4.27;100.00;102189.16;5032381;28;20025;-77
2023/10/16 03:59:38;;;;;;;20.00;7.68;;;;;;;4.25;100.00;102190.13;5014450;28;20120;-77
2023/10/16 04:02:05;;;;;;;19.92;7.38;;;;;;;4.23;100.00;102183.97;5014846;28;20045;-77
2023/10/16 04:04:30;;;;;;;19.65;7.78;;;;;;;4.22;100.00;102184.88;5030574;28;20022;-77
2023/10/16 04:06:56;;;;;;;18.83;7.57;;;;;;;4.17;100.00;102183.22;5015758;28;20049;-77
2023/10/16 04:09:22;;;;;;;18.83;8.23;;;;;;;4.16;100.00;102185.91;5016311;28;20029;-77
2023/10/16 04:11:54;;;;;;;18.77;7.53;;;;;;;4.16;100.00;102178.81;5015943;28;20056;-77
2023/10/16 04:14:28;;;;;;;22.48;9.30;;;;;;;4.15;100.00;102177.03;5014614;28;20036;-77
2023/10/16 04:16:56;;;;;;;19.58;7.50;;;;;;;4.12;100.00;102182.44;5015825;28;20036;-78
2023/10/16 04:22:16;;;;;;;18.48;7.25;;;;;;;4.12;100.00;102166.47;5016569;28;20188;-78
2023/10/16 04:24:44;;;;;;;18.00;7.60;;;;;;;4.14;100.00;102167.34;5014509;28;20030;-78
2023/10/16 04:29:46;;;;;;;20.33;8.57;;;;;;;4.12;100.00;102170.94;5017220;28;20057;-77
2023/10/16 04:34:52;;;;;;;19.17;8.10;;;;;;;4.13;100.00;102165.56;5016566;28;20592;-78
2023/10/16 04:37:36;;;;;;;18.88;8.48;;;;;;;4.11;100.00;102158.53;5006545;28;20029;-77
2023/10/16 04:48:47;;;;;;;;;;;;;;;4.14;100.00;102151.38;5011326;28;20065;-79
2023/10/16 05:17:21;;;;;;;21.42;9.15;;;;;;;4.26;100.00;102144.84;5012846;28;20474;-80
2023/10/16 05:19:53;;;;;;;22.15;8.80;;;;;;;4.31;100.00;102139.41;5012350;28;20116;-81
2023/10/16 06:14:22;;;;;;;22.27;9.93;;;;;;;4.86;100.00;102145.88;5011708;28;20056;-76
2023/10/16 06:16:56;;;;;;;23.35;11.05;;;;;;;4.89;100.00;102139.56;5011326;28;20030;-76
2023/10/16 06:19:24;;;;;;;20.30;9.32;;;;;;;4.87;100.00;102142.28;5011594;28;20021;-76
2023/10/16 06:21:51;;;;;;;23.67;10.38;;;;;;;4.87;100.00;102146.75;4993316;28;20030;-76
2023/10/16 06:24:28;;;;;;;21.60;9.77;;;;;;;4.85;100.00;102140.59;5011250;28;20483;-76
2023/10/16 06:26:54;;;;;;;19.98;9.52;;;;;;;4.83;100.00;102145.97;4993435;28;20029;-76
2023/10/16 06:29:20;;;;;;;21.65;9.68;;;;;;;4.83;100.00;102140.66;5011127;28;20108;-76
2023/10/16 06:31:53;;;;;;;20.98;9.05;;;;;;;4.83;100.00;102140.66;5011300;28;20100;-77
2023/10/16 06:34:19;;;;;;;21.85;9.70;;;;;;;4.78;100.00;102142.56;4993295;28;20526;-76
2023/10/16 06:36:45;;;;;;;21.90;8.70;;;;;;;4.78;100.00;102144.34;4993488;28;20030;-76
2023/10/16 06:39:22;;;;;;;21.50;9.95;;;;;;;4.77;100.00;102143.47;5009444;28;20621;-76
2023/10/16 06:41:54;;;;;;;20.95;9.77;;;;;;;4.77;100.00;102143.47;4993140;28;20463;-76
2023/10/16 06:44:29;;;;;;;19.10;8.73;;;;;;;4.79;100.00;102144.31;4992968;28;20084;-76
2023/10/16 06:46:59;;;;;;;22.63;9.20;;;;;;;4.79;100.00;102146.97;4993017;28;20030;-76
2023/10/16 06:49:35;;;;;;;21.98;9.32;;;;;;;4.82;100.00;102141.56;4993017;28;20021;-76
2023/10/16 06:52:04;;;;;;;21.88;9.65;;;;;;;4.83;100.00;102148.63;4993199;28;20380;-76
2023/10/16 06:54:37;;;;;;;21.75;9.35;;;;;;;4.84;100.00;102142.38;4992795;28;20025;-76
2023/10/16 06:57:10;;;;;;;19.88;9.27;;;;;;;4.82;100.00;102144.22;4992889;28;20168;-76
2023/10/16 06:59:39;;;;;;;20.27;9.85;;;;;;;4.83;100.00;102150.41;5010550;28;20018;-76
2023/10/16 07:02:06;;;;;;;22.60;10.20;;;;;;;4.84;100.00;102152.16;4992707;28;20022;-76
2023/10/16 07:04:32;;;;;;;21.00;9.27;;;;;;;4.88;100.00;102152.03;4992820;28;20022;-76
2023/10/16 07:06:58;;;;;;;21.67;10.00;;;;;;;4.93;100.00;102156.34;5010380;28;20076;-80
2023/10/16 07:09:36;;;;;;;20.42;10.00;;;;;;;4.96;100.00;102154.47;5017520;28;20036;-77
2023/10/16 07:12:03;;;;;;;23.10;11.05;;;;;;;4.98;100.00;102149.97;5018019;28;20040;-77
2023/10/16 07:14:29;;;;;;;21.98;11.35;;;;;;;5.01;100.00;102149.03;4984801;28;20041;-77
2023/10/16 07:16:54;;;;;;;22.98;10.45;;;;;;;5.04;100.00;102140.94;5001745;28;20482;-77
2023/10/16 07:19:19;;;;;;;20.70;10.00;;;;;;;5.05;100.00;102154.22;5022881;28;20041;-78
2023/10/16 07:21:48;;;;;;;21.83;11.07;;;;;;;5.07;100.00;102152.38;5002726;28;20438;-78
2023/10/16 07:24:15;;;;;;;22.45;10.00;;;;;;;5.09;100.00;102152.31;5012746;28;20030;-78
2023/10/16 07:26:41;;;;;;;23.23;10.85;;;;;;;5.11;100.00;102149.63;5020315;28;20514;-78
2023/10/16 07:29:06;;;;;;;22.25;10.30;;;;;;;5.14;100.00;102157.50;5002161;28;20029;-78
2023/10/16 07:31:31;;;;;;;22.88;10.68;;;;;;;5.16;100.00;102153.91;5019667;28;20021;-78
2023/10/16 07:33:59;;;;;;;20.58;10.30;;;;;;;5.17;100.00;102160.97;5018340;28;20095;-78
2023/10/16 07:36:25;;;;;;;22.52;10.52;;;;;;;5.21;100.00;102154.66;5017444;28;20038;-79
2023/10/16 07:38:51;;;;;;;22.23;10.30;;;;;;;5.24;100.00;102151.88;5023682;28;20036;-78
2023/10/16 07:41:18;;;;;;;22.75;11.07;;;;;;;5.30;100.00;102147.28;5003113;28;20022;-78
2023/10/16 07:43:46;;;;;;;21.90;11.13;;;;;;;5.36;100.00;102149.75;5016450;28;20029;-78
2023/10/16 07:48:50;;;;;;;23.95;12.73;;;;;;;5.47;100.00;102142.28;5020621;28;20045;-78
2023/10/16 07:51:20;;;;;;;21.67;10.85;;;;;;;5.49;100.00;102140.47;5000736;28;20057;-79
2023/10/16 07:53:47;;;;;;;27.35;12.60;;;;;;;5.54;100.00;102146.53;4999809;28;20121;-78
2023/10/16 07:58:54;;;;;;;23.60;12.52;;;;;;;5.67;100.00;102144.34;5017428;28;20052;-79
2023/10/16 08:01:32;;;;;;;;;;;;;;;5.74;100.00;102145.00;5017616;28;20167;-78
2023/10/16 08:03:58;;;;;;;22.90;11.50;;;;;;;5.78;100.00;102143.97;5001393;28;19979;-78
2023/10/16 08:06:24;;;;;;;23.35;12.18;;;;;;;5.83;100.00;102150.06;4999266;28;20112;-78
2023/10/16 08:09:19;;;;;;;20.75;10.48;;;;;;;5.86;100.00;102149.09;5017265;28;20509;-78
2023/10/16 08:11:36;;;;;;;22.02;11.77;;;;;;;5.92;100.00;102147.09;5017438;28;20037;-78
2023/10/16 08:14:06;;;;;;;22.70;12.15;;;;;;;5.99;100.00;102146.91;4992282;28;20026;-78
2023/10/16 08:16:31;;;;;;;;;;;;;;;6.08;100.00;102144.81;5018151;28;20032;-78
2023/10/16 08:18:57;;;;;;;24.90;12.70;;;;;;;6.12;100.00;102137.59;4994124;28;20390;-80
2023/10/16 08:21:25;;;;;;;27.05;13.13;;;;;;;6.20;100.00;102143.53;5009610;28;20030;-80
2023/10/16 08:23:56;;;;;;;24.90;12.38;;;;;;;6.25;100.00;102148.69;5009601;28;20036;-80
2023/10/16 08:26:41;;;;;;;24.73;12.75;;;;;;;6.32;100.00;102144.88;5009799;28;20026;-80
2023/10/16 08:31:47;;;;;;;22.80;11.55;;;;;;;6.43;100.00;102140.06;5010409;28;20040;-80
2023/10/16 08:34:21;;;;;;;23.77;11.50;;;;;;;6.48;100.00;102147.91;5010179;28;20084;-80
2023/10/16 08:36:51;;;;;;;23.20;11.20;;;;;;;6.55;100.00;102144.09;4992199;28;20124;-80
2023/10/16 08:39:17;;;;;;;22.40;11.65;;;;;;;6.61;100.00;102138.53;5010309;28;20483;-80
2023/10/16 08:41:42;;;;;;;23.20;10.75;;;;;;;6.67;100.00;102141.91;5009843;28;20494;-80
2023/10/16 08:44:14;;;;;;;22.35;11.52;;;;;;;6.70;100.00;102134.66;4991654;28;20026;-80
2023/10/16 08:46:53;;;;;;;22.15;11.40;;;;;;;6.79;100.00;102136.13;5009876;28;20396;-80
2023/10/16 08:49:22;;;;;;;21.58;11.82;;;;;;;6.83;100.00;102130.59;4992269;28;20074;-80
2023/10/16 08:52:02;;;;;;;24.08;11.75;;;;;;;6.91;100.00;102137.44;5009719;28;20113;-81
2023/10/16 08:57:16;;;;;;;23.30;11.50;;;;;;;7.05;100.00;102140.50;5009399;28;20428;-80
2023/10/16 08:59:43;;;;;;;20.98;11.05;;;;;;;7.11;100.00;102142.91;4991661;28;20501;-80
2023/10/16 09:02:13;;;;;;;24.23;10.38;;;;;;;7.18;100.00;102146.25;5009556;28;20390;-80
2023/10/16 09:04:41;;;;;;;22.15;10.82;;;;;;;7.27;100.00;102148.56;4992131;28;20452;-81
2023/10/16 09:07:06;;;;;;;22.30;11.43;;;;;;;7.35;100.00;102146.47;4992100;28;20409;-80
2023/10/16 09:09:32;;;;;;;23.48;10.20;;;;;;;7.43;100.00;102151.50;5009578;28;20030;-80
2023/10/16 09:12:04;;;;;;;22.45;10.77;;;;;;;7.50;100.00;102152.16;5008124;28;20018;-80
2023/10/16 09:14:29;;;;;;;21.52;10.32;;;;;;;7.60;100.00;102149.97;4991672;28;20474;-79
2023/10/16 09:16:58;;;;;;;22.63;10.45;;;;;;;7.68;100.00;102142.50;5009842;28;20036;-80
2023/10/16 09:19:34;;;;;;;22.58;9.95;;;;;;;7.76;100.00;102139.53;4992225;28;20032;-81
2023/10/16 09:22:09;;;;;;;22.73;9.88;;;;;;;7.85;100.00;102136.50;4992043;28;20486;-80
2023/10/16 09:24:35;;;;;;;20.35;9.57;;;;;;;7.97;100.00;102144.00;5010700;28;20451;-81
2023/10/16 09:27:11;;;;;;;22.70;9.98;;;;;;;8.04;100.00;102144.63;5010486;28;20113;-80
2023/10/16 09:29:36;;;;;;;19.88;8.02;;;;;;;8.14;100.00;102150.44;5008644;28;20112;-81
2023/10/16 09:32:06;;;;;;;19.88;8.27;;;;;;;8.25;100.00;102139.28;5008372;28;20026;-82
2023/10/16 09:34:33;;;;;;;21.08;7.55;;;;;;;8.35;100.00;102138.81;4991458;28;20114;-81
2023/10/16 09:39:46;;;;;;;24.35;7.95;;;;;;;8.54;100.00;102148.78;5006340;28;20108;-81
2023/10/16 09:42:12;;;;;;;21.73;7.45;;;;;;;8.61;100.00;102147.56;5012310;28;20085;-81
2023/10/16 09:44:44;;;;;;;17.27;6.63;;;;;;;8.71;100.00;102153.38;5012154;28;20021;-81
2023/10/16 09:47:25;;;;;;;19.73;6.93;;;;;;;8.79;100.00;102145.00;5010562;28;20065;-82
2023/10/16 09:50:16;;;;;;;17.80;6.78;;;;;;;8.87;100.00;102141.03;5005747;28;20105;-82
2023/10/16 09:52:45;;;;;;;16.45;6.43;;;;;;;8.96;100.00;102141.53;5012126;28;20427;-82
2023/10/16 09:55:12;;;;;;;17.57;6.07;;;;;;;9.02;100.00;102142.16;5011981;28;20442;-82
2023/10/16 09:57:46;;;;;;;17.98;6.80;;;;;;;9.08;100.00;102141.84;5011908;28;20452;-82
2023/10/16 10:00:28;;;;;;;20.42;7.32;;;;;;;9.15;100.00;102144.25;5011917;28;20021;-82
2023/10/16 10:03:11;;;;;;;18.95;6.82;;;;;;;9.23;100.00;102144.78;5002873;28;20130;-82
2023/10/16 10:05:48;;;;;;;22.08;8.45;;;;;;;9.29;100.00;102147.16;4993920;28;20582;-82
2023/10/16 10:08:27;;;;;;;18.88;6.85;;;;;;;9.35;100.00;102143.31;5011802;28;20412;-82
2023/10/16 10:11:17;;;;;;;14.50;5.82;;;;;;;9.42;100.00;102145.63;5011580;28;20030;-82
2023/10/16 10:13:47;;;;;;;21.42;6.38;;;;;;;9.50;100.00;102133.66;5011562;28;20026;-82
2023/10/16 10:16:14;;;;;;;;;;;;;;;9.56;100.00;102138.72;4994493;28;20026;-82
2023/10/16 10:19:01;;;;;;;16.95;5.60;;;;;;;9.62;100.00;102135.78;5011341;28;20019;-82
2023/10/16 10:21:29;;;;;;;16.20;4.85;;;;;;;9.67;100.00;102131.03;4987899;28;20112;-82
2023/10/16 10:24:00;;;;;;;14.25;5.00;;;;;;;9.71;100.00;102127.25;5011499;28;20399;-82
2023/10/16 10:26:27;;;;;;;14.48;4.60;;;;;;;9.76;100.00;102130.56;5011150;28;20429;-82
2023/10/16 10:29:09;;;;;;;16.05;5.18;;;;;;;9.82;100.00;102133.91;5009813;28;20034;-82
2023/10/16 10:31:36;;;;;;;11.15;3.03;;;;;;;9.86;100.00;102131.00;4993398;28;20018;-82
2023/10/16 10:34:28;;;;;;;11.27;3.50;;;;;;;9.95;100.00;102125.16;4993155;28;20057;-81
2023/10/16 10:36:54;;;;;;;14.45;4.00;;;;;;;10.00;100.00;102133.00;4993182;28;20088;-82
2023/10/16 10:39:20;;;;;;;12.90;4.28;;;;;;;10.06;100.00;102123.75;5011978;28;20034;-77
2023/10/16 10:41:58;;;;;;;7.70;2.10;;;;;;;10.06;98.64;102127.31;4993343;28;20041;-77
2023/10/16 10:44:39;;;;;;;8.32;2.47;;;;;;;10.12;100.00;102127.00;5011183;28;20112;-77
2023/10/16 10:47:24;;;;;;;8.85;2.55;;;;;;;10.15;97.13;102126.84;4993238;28;20030;-77
2023/10/16 10:49:51;;;;;;;12.20;3.22;;;;;;;10.20;99.82;102128.44;5004705;28;20184;-77
2023/10/16 10:52:19;;;;;;;9.95;3.58;;;;;;;10.24;100.00;102119.25;5011128;28;20026;-77
2023/10/16 10:54:48;;;;;;;7.82;2.78;;;;;;;10.27;99.68;102116.41;5010976;28;20037;-76
2023/10/16 10:57:17;;;;;;;;;;;;;;;10.32;100.00;102114.34;4993874;28;20079;-76
2023/10/16 10:59:55;;;;;;;2.90;1.47;;;;;;;10.33;91.75;102116.09;5011478;28;19975;-76
2023/10/16 11:02:36;;;;;;;6.32;2.38;;;;;;;10.38;93.56;102118.56;5011087;28;20025;-77
2023/10/16 11:05:08;;;;;;;6.20;2.17;;;;;;;10.46;94.30;102117.22;5011135;28;20140;-76
2023/10/16 11:07:45;;;;;;;9.07;2.47;;;;;;;10.55;97.83;102110.50;5010926;28;20028;-77
2023/10/16 11:10:13;;;;;;;12.82;3.28;;;;;;;10.63;96.56;102112.75;4993155;28;20040;-76
2023/10/16 11:12:38;;;;;;;8.80;2.53;;;;;;;10.70;97.25;102111.47;4993116;28;20021;-77
2023/10/16 11:15:10;;;;;;;9.80;3.45;;;;;;;10.77;98.15;102107.50;4993290;28;20028;-77
2023/10/16 11:17:39;;;;;;;9.43;3.38;;;;;;;10.87;100.00;102107.03;4993138;28;20022;-76
2023/10/16 11:22:43;;;;;;;10.65;3.92;;;;;;;11.00;100.00;102094.66;5010389;28;20049;-77
2023/10/16 11:25:13;;;;;;;13.65;3.90;;;;;;;11.08;100.00;102102.28;4992877;28;20040;-76
2023/10/16 11:27:41;;;;;;;;;;;;;;;11.15;100.00;102096.47;4993229;28;20112;-77
2023/10/16 11:30:12;;;;;;;9.50;3.80;;;;;;;11.16;96.88;102092.84;5009035;28;20353;-77
2023/10/16 11:32:45;;;;;;;11.48;3.88;;;;;;;11.24;99.98;102083.47;5010652;28;20010;-77
2023/10/16 11:35:18;;;;;;;14.20;4.05;;;;;;;11.31;98.95;102095.63;4992324;28;20061;-76
2023/10/16 11:37:52;;;;;;;11.88;3.85;;;;;;;11.33;98.64;102085.63;4992764;28;20030;-76
2023/10/16 11:40:32;;;;;;;17.25;4.40;;;;;;;11.34;92.21;102082.00;5008918;28;20037;-77
2023/10/16 11:43:04;;;;;;;10.75;3.55;;;;;;;11.40;94.36;102078.94;4992565;28;20049;-77
2023/10/16 11:45:33;;;;;;;13.10;3.90;;;;;;;11.46;94.91;102077.72;4992476;28;20069;-76
2023/10/16 11:50:52;;;;;;;14.00;3.15;;;;;;;11.56;91.05;102076.22;5004346;28;20076;-77
2023/10/16 11:53:23;;;;;;;9.90;2.87;;;;;;;11.63;91.39;102071.38;5008544;28;20510;-77
2023/10/16 11:55:49;;;;;;;;;;;;;;;11.73;98.19;102072.56;5025261;28;20037;-77
2023/10/16 11:58:14;;;;;;;10.07;2.45;;;;;;;11.76;90.57;102075.09;5008162;28;20363;-77
2023/10/16 12:00:48;;;;;;;10.38;2.90;;;;;;;11.82;89.85;102068.47;5024757;28;20057;-77
2023/10/16 12:03:17;;;;;;;13.65;3.05;;;;;;;11.81;90.32;102056.81;5024677;28;20474;-76
2023/10/16 12:05:43;;;;;;;9.02;3.08;;;;;;;11.84;90.56;102053.06;5009819;28;20076;-76
2023/10/16 12:08:09;;;;;;;9.43;3.30;;;;;;;11.88;92.67;102057.31;5024927;28;20533;-77
2023/10/16 12:10:37;;;;;;;9.27;2.75;;;;;;;11.87;95.01;102052.88;5024653;28;20060;-76
2023/10/16 12:13:03;;;;;;;7.45;2.70;;;;;;;11.87;95.11;102053.78;5008371;28;20109;-77
2023/10/16 12:15:29;;;;;;;12.75;3.30;;;;;;;11.85;94.41;102052.13;5009703;28;20498;-76
2023/10/16 12:17:55;;;;;;;10.63;3.15;;;;;;;11.82;95.30;102045.09;5009681;28;20034;-76
2023/10/16 12:20:26;;;;;;;12.73;3.22;;;;;;;11.80;93.86;102040.75;5009753;28;20026;-77
2023/10/16 12:22:52;;;;;;;7.32;2.70;;;;;;;11.77;87.22;102043.63;5008121;28;20543;-77
2023/10/16 12:25:18;;;;;;;8.50;3.03;;;;;;;11.78;94.15;102039.97;5008235;28;20121;-77
2023/10/16 12:27:44;;;;;;;6.55;2.60;;;;;;;11.83;96.25;102038.75;5009782;28;20036;-77
2023/10/16 12:30:13;;;;;;;10.73;3.38;;;;;;;11.83;92.40;102032.47;5024499;28;20582;-77
2023/10/16 12:32:39;;;;;;;9.07;2.85;;;;;;;11.84;96.11;102040.47;5024541;28;20026;-76
2023/10/16 12:35:08;;;;;;;10.48;3.38;;;;;;;11.82;92.55;102034.31;5009164;28;20071;-77
2023/10/16 12:37:34;;;;;;;26.30;4.53;;;;;;;11.83;89.78;102030.66;5004051;28;20034;-77
2023/10/16 12:39:59;;;;;;;9.60;3.05;;;;;;;11.86;89.79;102026.94;5007090;28;20113;-76
2023/10/16 12:42:24;;;;;;;9.30;2.50;;;;;;;11.85;90.85;102023.34;5009282;28;20045;-76
2023/10/16 12:44:50;;;;;;;6.82;1.92;;;;;;;11.85;86.92;102020.66;5009398;28;20030;-76
2023/10/16 12:47:15;;;;;;;8.10;2.20;;;;;;;11.87;87.60;102018.75;5007747;28;20623;-76
2023/10/16 12:49:41;;;;;;;8.07;2.30;;;;;;;11.87;89.47;102018.75;5024255;28;20529;-76
2023/10/16 12:52:07;;;;;;;7.10;2.38;;;;;;;11.89;91.68;102021.34;5007685;28;20030;-76
2023/10/16 12:54:32;;;;;;;10.02;2.83;;;;;;;11.89;93.49;102016.81;5008016;28;20045;-76
2023/10/16 12:56:59;;;;;;;8.70;2.53;;;;;;;11.92;93.17;102020.28;5009319;28;20029;-77
2023/10/16 12:59:27;;;;;;;11.57;3.25;;;;;;;11.92;90.59;102017.59;5020447;28;20066;-79
2023/10/16 13:01:53;;;;;;;9.90;2.83;;;;;;;11.92;89.06;102021.16;5026889;28;20026;-80
2023/10/16 13:04:19;;;;;;;8.85;2.78;;;;;;;11.97;93.94;102018.22;5020207;28;20019;-79
2023/10/16 13:06:45;;;;;;;11.40;3.15;;;;;;;11.98;91.69;102014.56;5017629;28;20030;-79
2023/10/16 13:09:16;;;;;;;10.65;3.03;;;;;;;11.96;83.60;102014.69;5023550;28;20113;-80
2023/10/16 13:11:42;;;;;;;8.25;2.53;;;;;;;11.95;86.87;102021.00;5027717;28;20029;-78
2023/10/16 13:14:07;;;;;;;9.63;2.72;;;;;;;11.97;88.92;102015.53;5030097;28;20022;-79
2023/10/16 13:16:33;;;;;;;7.55;2.78;;;;;;;11.94;88.36;102021.09;5028419;28;20680;-79
2023/10/16 13:18:59;;;;;;;7.43;2.72;;;;;;;11.91;90.76;102014.03;5029121;28;20033;-79
2023/10/16 13:21:38;;;;;;;11.00;2.90;;;;;;;11.91;92.01;102013.19;5030192;28;20021;-80
2023/10/16 13:24:09;;;;;;;11.23;2.95;;;;;;;11.88;93.83;102006.16;5028183;28;20092;-79
2023/10/16 13:26:37;;;;;;;10.80;3.03;;;;;;;11.84;86.80;102012.66;5026701;28;20030;-79